sensor_id;sensor_type;location;lat;lon;timestamp;pressure;altitude;pressure_sealevel;temperature;humidity
31346;BME280;21711;49.708;18.568;2023-04-24T00:00:05;96465.03;;;15.58;43.17
31346;BME280;21711;49.708;18.568;2023-04-24T00:02:33;96449.53;;;15.72;43.23
31346;BME280;21711;49.708;18.568;2023-04-24T00:05:01;96451.31;;;15.68;42.02
31346;BME280;21711;49.708;18.568;2023-04-24T00:07:29;96450.59;;;15.59;43.11
31346;BME280;21711;49.708;18.568;2023-04-24T00:09:57;96448.25;;;15.57;42.26
31346;BME280;21711;49.708;18.568;2023-04-24T00:12:25;96444.81;;;15.57;42.34
31346;BME280;21711;49.708;18.568;2023-04-24T00:14:53;96448.25;;;15.57;42.16
31346;BME280;21711;49.708;18.568;2023-04-24T00:17:20;96440.13;;;15.54;42.33
31346;BME280;21711;49.708;18.568;2023-04-24T00:19:48;96436.16;;;15.60;41.94
31346;BME280;21711;49.708;18.568;2023-04-24T00:22:18;96434.41;;;15.64;41.55
31346;BME280;21711;49.708;18.568;2023-04-24T00:24:47;96434.88;;;15.66;41.79
31346;BME280;21711;49.708;18.568;2023-04-24T00:27:15;96436.63;;;15.62;41.28
31346;BME280;21711;49.708;18.568;2023-04-24T00:29:42;96434.88;;;15.66;42.10
31346;BME280;21711;49.708;18.568;2023-04-24T00:32:10;96429.91;;;15.77;41.25
31346;BME280;21711;49.708;18.568;2023-04-24T00:34:38;96421.66;;;15.70;41.34
31346;BME280;21711;49.708;18.568;2023-04-24T00:37:05;96423.34;;;15.74;40.52
31346;BME280;21711;49.708;18.568;2023-04-24T00:39:33;96421.00;;;15.73;40.73
31346;BME280;21711;49.708;18.568;2023-04-24T00:42:00;96413.16;;;15.76;40.80
31346;BME280;21711;49.708;18.568;2023-04-24T00:44:28;96417.81;;;15.80;40.73
31346;BME280;21711;49.708;18.568;2023-04-24T00:46:56;96406.50;;;15.83;40.11
31346;BME280;21711;49.708;18.568;2023-04-24T00:49:24;96409.03;;;15.79;40.66
31346;BME280;21711;49.708;18.568;2023-04-24T00:51:52;96407.94;;;15.80;41.24
31346;BME280;21711;49.708;18.568;2023-04-24T00:54:20;96409.47;;;15.81;40.52
31346;BME280;21711;49.708;18.568;2023-04-24T00:56:50;96404.28;;;15.85;40.25
31346;BME280;21711;49.708;18.568;2023-04-24T00:59:18;96392.06;;;15.84;40.29
31346;BME280;21711;49.708;18.568;2023-04-24T01:01:45;96385.44;;;15.90;39.98
31346;BME280;21711;49.708;18.568;2023-04-24T01:04:14;96396.13;;;15.69;41.51
31346;BME280;21711;49.708;18.568;2023-04-24T01:06:43;96390.78;;;15.69;41.99
31346;BME280;21711;49.708;18.568;2023-04-24T01:09:12;96384.03;;;15.71;41.34
31346;BME280;21711;49.708;18.568;2023-04-24T01:11:42;96385.59;;;15.72;41.53
31346;BME280;21711;49.708;18.568;2023-04-24T01:14:11;96379.78;;;15.70;42.30
31346;BME280;21711;49.708;18.568;2023-04-24T01:16:39;96377.78;;;15.67;42.12
31346;BME280;21711;49.708;18.568;2023-04-24T01:19:06;96386.44;;;15.64;42.31
31346;BME280;21711;49.708;18.568;2023-04-24T01:21:37;96376.25;;;15.66;42.96
31346;BME280;21711;49.708;18.568;2023-04-24T01:24:06;96373.44;;;15.62;42.49
31346;BME280;21711;49.708;18.568;2023-04-24T01:26:33;96380.66;;;15.62;42.98
31346;BME280;21711;49.708;18.568;2023-04-24T01:29:01;96373.97;;;15.56;43.49
31346;BME280;21711;49.708;18.568;2023-04-24T01:31:29;96370.94;;;15.45;43.19
31346;BME280;21711;49.708;18.568;2023-04-24T01:33:57;96369.94;;;15.49;42.46
31346;BME280;21711;49.708;18.568;2023-04-24T01:36:25;96364.28;;;15.51;42.36
31346;BME280;21711;49.708;18.568;2023-04-24T01:38:54;96365.72;;;15.48;42.36
31346;BME280;21711;49.708;18.568;2023-04-24T01:41:22;96353.72;;;15.42;41.94
31346;BME280;21711;49.708;18.568;2023-04-24T01:43:50;96360.59;;;15.43;42.38
31346;BME280;21711;49.708;18.568;2023-04-24T01:46:19;96358.25;;;15.42;42.25
31346;BME280;21711;49.708;18.568;2023-04-24T01:48:46;96353.44;;;15.35;41.84
31346;BME280;21711;49.708;18.568;2023-04-24T01:51:14;96342.16;;;15.38;42.05
31346;BME280;21711;49.708;18.568;2023-04-24T01:53:41;96345.47;;;15.35;42.39
31346;BME280;21711;49.708;18.568;2023-04-24T01:56:09;96348.03;;;15.44;42.46
31346;BME280;21711;49.708;18.568;2023-04-24T01:58:36;96345.72;;;15.42;42.67
31346;BME280;21711;49.708;18.568;2023-04-24T02:01:05;96343.63;;;15.27;42.22
31346;BME280;21711;49.708;18.568;2023-04-24T02:03:33;96340.13;;;15.35;41.77
31346;BME280;21711;49.708;18.568;2023-04-24T02:06:01;96345.59;;;15.38;42.25
31346;BME280;21711;49.708;18.568;2023-04-24T02:08:28;96340.97;;;15.48;40.38
31346;BME280;21711;49.708;18.568;2023-04-24T02:10:55;96347.03;;;15.70;41.15
31346;BME280;21711;49.708;18.568;2023-04-24T02:13:24;96358.84;;;15.47;41.39
31346;BME280;21711;49.708;18.568;2023-04-24T02:15:51;96341.03;;;15.39;42.12
31346;BME280;21711;49.708;18.568;2023-04-24T02:18:18;96354.38;;;15.39;42.13
31346;BME280;21711;49.708;18.568;2023-04-24T02:20:46;96343.38;;;15.41;41.85
31346;BME280;21711;49.708;18.568;2023-04-24T02:23:14;96346.06;;;15.41;41.77
31346;BME280;21711;49.708;18.568;2023-04-24T02:25:41;96343.13;;;15.33;42.32
31346;BME280;21711;49.708;18.568;2023-04-24T02:28:08;96338.38;;;15.39;42.05
31346;BME280;21711;49.708;18.568;2023-04-24T02:30:36;96343.59;;;15.35;41.38
31346;BME280;21711;49.708;18.568;2023-04-24T02:33:03;96346.56;;;15.55;42.00
31346;BME280;21711;49.708;18.568;2023-04-24T02:35:30;96338.88;;;15.54;41.82
31346;BME280;21711;49.708;18.568;2023-04-24T02:37:58;96332.56;;;15.58;42.08
31346;BME280;21711;49.708;18.568;2023-04-24T02:40:25;96342.28;;;15.42;41.67
31346;BME280;21711;49.708;18.568;2023-04-24T02:42:52;96338.81;;;15.41;42.05
31346;BME280;21711;49.708;18.568;2023-04-24T02:45:20;96334.72;;;15.44;41.77
31346;BME280;21711;49.708;18.568;2023-04-24T02:47:47;96336.84;;;15.50;41.97
31346;BME280;21711;49.708;18.568;2023-04-24T02:50:14;96334.00;;;15.56;41.30
31346;BME280;21711;49.708;18.568;2023-04-24T02:52:42;96330.59;;;15.68;41.94
31346;BME280;21711;49.708;18.568;2023-04-24T02:55:09;96334.88;;;15.47;41.27
31346;BME280;21711;49.708;18.568;2023-04-24T02:57:36;96334.91;;;15.60;41.10
31346;BME280;21711;49.708;18.568;2023-04-24T03:00:05;96334.13;;;15.59;39.51
31346;BME280;21711;49.708;18.568;2023-04-24T03:02:34;96339.16;;;15.73;40.16
31346;BME280;21711;49.708;18.568;2023-04-24T03:05:02;96331.38;;;15.68;43.37
31346;BME280;21711;49.708;18.568;2023-04-24T03:07:29;96329.97;;;15.49;41.48
31346;BME280;21711;49.708;18.568;2023-04-24T03:09:58;96334.53;;;15.49;40.72
31346;BME280;21711;49.708;18.568;2023-04-24T03:12:26;96329.13;;;15.58;40.04
31346;BME280;21711;49.708;18.568;2023-04-24T03:14:54;96329.13;;;15.58;39.81
31346;BME280;21711;49.708;18.568;2023-04-24T03:17:21;96327.69;;;15.60;40.10
31346;BME280;21711;49.708;18.568;2023-04-24T03:19:49;96324.50;;;15.67;42.77
31346;BME280;21711;49.708;18.568;2023-04-24T03:22:17;96328.72;;;15.68;41.53
31346;BME280;21711;49.708;18.568;2023-04-24T03:24:44;96323.81;;;15.58;39.78
31346;BME280;21711;49.708;18.568;2023-04-24T03:27:15;96321.56;;;15.60;42.78
31346;BME280;21711;49.708;18.568;2023-04-24T03:29:55;96329.81;;;15.33;44.01
31346;BME280;21711;49.708;18.568;2023-04-24T03:32:29;96322.66;;;15.25;39.16
31346;BME280;21711;49.708;18.568;2023-04-24T03:34:59;96333.03;;;15.73;39.16
31346;BME280;21711;49.708;18.568;2023-04-24T03:37:27;96332.50;;;15.80;38.54
31346;BME280;21711;49.708;18.568;2023-04-24T03:40:11;96323.63;;;15.75;39.73
31346;BME280;21711;49.708;18.568;2023-04-24T03:42:38;96333.66;;;15.57;40.93
31346;BME280;21711;49.708;18.568;2023-04-24T03:45:07;96326.00;;;15.56;39.33
31346;BME280;21711;49.708;18.568;2023-04-24T03:47:36;96326.59;;;15.61;39.87
31346;BME280;21711;49.708;18.568;2023-04-24T03:50:05;96324.44;;;15.88;37.77
31346;BME280;21711;49.708;18.568;2023-04-24T03:52:34;96320.00;;;15.93;39.62
31346;BME280;21711;49.708;18.568;2023-04-24T03:55:01;96314.66;;;15.80;40.62
31346;BME280;21711;49.708;18.568;2023-04-24T03:57:33;96325.72;;;15.70;41.29
31346;BME280;21711;49.708;18.568;2023-04-24T04:00:10;96309.53;;;15.41;43.22
31346;BME280;21711;49.708;18.568;2023-04-24T04:02:41;96313.19;;;15.36;39.99
31346;BME280;21711;49.708;18.568;2023-04-24T04:05:09;96321.28;;;15.40;41.99
31346;BME280;21711;49.708;18.568;2023-04-24T04:07:36;96314.66;;;15.25;42.70
31346;BME280;21711;49.708;18.568;2023-04-24T04:10:05;96316.50;;;15.12;42.38
31346;BME280;21711;49.708;18.568;2023-04-24T04:12:36;96322.09;;;15.19;43.15
31346;BME280;21711;49.708;18.568;2023-04-24T04:15:03;96319.13;;;15.21;42.83
31346;BME280;21711;49.708;18.568;2023-04-24T04:17:33;96314.50;;;15.09;43.60
31346;BME280;21711;49.708;18.568;2023-04-24T04:20:01;96317.59;;;15.11;42.94
31346;BME280;21711;49.708;18.568;2023-04-24T04:22:28;96310.00;;;15.22;43.82
31346;BME280;21711;49.708;18.568;2023-04-24T04:24:58;96315.84;;;15.15;44.49
31346;BME280;21711;49.708;18.568;2023-04-24T04:27:26;96303.44;;;15.19;42.02
31346;BME280;21711;49.708;18.568;2023-04-24T04:30:04;96309.84;;;15.18;43.40
31346;BME280;21711;49.708;18.568;2023-04-24T04:32:40;96317.50;;;15.07;44.01
31346;BME280;21711;49.708;18.568;2023-04-24T04:35:07;96310.84;;;15.14;44.19
31346;BME280;21711;49.708;18.568;2023-04-24T04:37:36;96308.72;;;15.07;43.78
31346;BME280;21711;49.708;18.568;2023-04-24T04:40:22;96312.22;;;14.98;44.34
31346;BME280;21711;49.708;18.568;2023-04-24T04:42:57;96307.69;;;14.99;44.64
31346;BME280;21711;49.708;18.568;2023-04-24T04:45:28;96300.47;;;14.99;44.49
31346;BME280;21711;49.708;18.568;2023-04-24T04:48:14;96303.59;;;15.02;44.65
31346;BME280;21711;49.708;18.568;2023-04-24T04:50:44;96312.47;;;15.06;44.98
31346;BME280;21711;49.708;18.568;2023-04-24T04:53:12;96297.63;;;15.05;44.82
31346;BME280;21711;49.708;18.568;2023-04-24T04:55:39;96303.66;;;14.93;44.44
31346;BME280;21711;49.708;18.568;2023-04-24T04:58:13;96305.44;;;15.01;45.28
31346;BME280;21711;49.708;18.568;2023-04-24T05:00:40;96305.44;;;15.01;45.23
31346;BME280;21711;49.708;18.568;2023-04-24T05:03:24;96311.84;;;15.09;44.71
31346;BME280;21711;49.708;18.568;2023-04-24T05:05:58;96301.38;;;15.04;44.59
31346;BME280;21711;49.708;18.568;2023-04-24T05:08:26;96307.28;;;15.09;43.92
31346;BME280;21711;49.708;18.568;2023-04-24T05:10:55;96299.69;;;15.20;44.14
31346;BME280;21711;49.708;18.568;2023-04-24T05:13:24;96303.13;;;15.21;44.58
31346;BME280;21711;49.708;18.568;2023-04-24T05:16:09;96304.88;;;15.38;44.56
31346;BME280;21711;49.708;18.568;2023-04-24T05:18:37;96293.97;;;15.64;48.26
31346;BME280;21711;49.708;18.568;2023-04-24T05:21:06;96304.41;;;15.82;45.91
31346;BME280;21711;49.708;18.568;2023-04-24T05:23:34;96297.09;;;15.91;44.21
31346;BME280;21711;49.708;18.568;2023-04-24T05:26:02;96295.06;;;16.10;43.07
31346;BME280;21711;49.708;18.568;2023-04-24T05:28:32;96294.84;;;16.40;42.03
31346;BME280;21711;49.708;18.568;2023-04-24T05:31:05;96299.94;;;16.45;43.23
31346;BME280;21711;49.708;18.568;2023-04-24T05:33:34;96302.59;;;16.70;42.58
31346;BME280;21711;49.708;18.568;2023-04-24T05:36:01;96301.34;;;16.80;41.27
31346;BME280;21711;49.708;18.568;2023-04-24T05:38:29;96301.19;;;17.01;41.48
31346;BME280;21711;49.708;18.568;2023-04-24T05:40:56;96302.84;;;17.18;42.07
31346;BME280;21711;49.708;18.568;2023-04-24T05:43:23;96290.56;;;17.30;42.78
31346;BME280;21711;49.708;18.568;2023-04-24T05:45:51;96291.03;;;17.19;39.90
31346;BME280;21711;49.708;18.568;2023-04-24T05:48:18;96297.59;;;17.22;40.99
31346;BME280;21711;49.708;18.568;2023-04-24T05:50:45;96292.88;;;17.31;40.71
31346;BME280;21711;49.708;18.568;2023-04-24T05:53:15;96286.72;;;17.43;41.51
31346;BME280;21711;49.708;18.568;2023-04-24T05:55:42;96292.59;;;17.49;41.47
31346;BME280;21711;49.708;18.568;2023-04-24T05:58:10;96285.84;;;17.39;38.29
31346;BME280;21711;49.708;18.568;2023-04-24T06:00:38;96286.56;;;17.52;38.93
31346;BME280;21711;49.708;18.568;2023-04-24T06:03:08;96285.56;;;17.73;40.21
31346;BME280;21711;49.708;18.568;2023-04-24T06:05:36;96278.56;;;17.52;40.95
31346;BME280;21711;49.708;18.568;2023-04-24T06:08:04;96271.59;;;17.80;40.43
31346;BME280;21711;49.708;18.568;2023-04-24T06:10:35;96277.81;;;17.68;40.87
31346;BME280;21711;49.708;18.568;2023-04-24T06:13:03;96272.41;;;17.96;41.41
31346;BME280;21711;49.708;18.568;2023-04-24T06:15:33;96276.19;;;18.11;40.91
31346;BME280;21711;49.708;18.568;2023-04-24T06:18:08;96272.84;;;18.14;40.70
31346;BME280;21711;49.708;18.568;2023-04-24T06:20:38;96270.56;;;18.33;39.81
31346;BME280;21711;49.708;18.568;2023-04-24T06:23:08;96272.38;;;18.45;43.25
31346;BME280;21711;49.708;18.568;2023-04-24T06:25:36;96275.81;;;18.61;42.22
31346;BME280;21711;49.708;18.568;2023-04-24T06:28:04;96277.94;;;18.91;38.78
31346;BME280;21711;49.708;18.568;2023-04-24T06:30:32;96280.94;;;19.26;42.00
31346;BME280;21711;49.708;18.568;2023-04-24T06:32:59;96282.81;;;19.65;39.34
31346;BME280;21711;49.708;18.568;2023-04-24T06:35:45;96284.44;;;20.16;39.36
31346;BME280;21711;49.708;18.568;2023-04-24T06:38:12;96281.31;;;19.91;38.64
31346;BME280;21711;49.708;18.568;2023-04-24T06:40:39;96280.72;;;20.24;37.33
31346;BME280;21711;49.708;18.568;2023-04-24T06:43:07;96275.31;;;20.48;37.97
31346;BME280;21711;49.708;18.568;2023-04-24T06:45:34;96279.31;;;20.61;36.21
31346;BME280;21711;49.708;18.568;2023-04-24T06:48:01;96282.28;;;20.80;37.29
31346;BME280;21711;49.708;18.568;2023-04-24T06:50:29;96278.63;;;20.92;35.84
31346;BME280;21711;49.708;18.568;2023-04-24T06:52:56;96280.63;;;20.98;36.74
31346;BME280;21711;49.708;18.568;2023-04-24T06:55:23;96284.19;;;21.10;37.36
31346;BME280;21711;49.708;18.568;2023-04-24T06:57:50;96277.13;;;20.94;39.49
31346;BME280;21711;49.708;18.568;2023-04-24T07:00:18;96279.69;;;21.18;36.95
31346;BME280;21711;49.708;18.568;2023-04-24T07:02:45;96280.94;;;21.27;36.98
31346;BME280;21711;49.708;18.568;2023-04-24T07:05:13;96271.63;;;21.18;36.04
31346;BME280;21711;49.708;18.568;2023-04-24T07:07:42;96282.47;;;21.25;36.95
31346;BME280;21711;49.708;18.568;2023-04-24T07:10:10;96279.47;;;21.34;36.13
31346;BME280;21711;49.708;18.568;2023-04-24T07:12:37;96275.00;;;20.84;37.56
31346;BME280;21711;49.708;18.568;2023-04-24T07:15:06;96274.09;;;20.72;39.30
31346;BME280;21711;49.708;18.568;2023-04-24T07:17:35;96272.97;;;20.73;38.57
31346;BME280;21711;49.708;18.568;2023-04-24T07:20:02;96266.66;;;20.58;40.55
31346;BME280;21711;49.708;18.568;2023-04-24T07:22:31;96276.50;;;20.50;40.23
31346;BME280;21711;49.708;18.568;2023-04-24T07:24:58;96272.38;;;20.30;40.82
31346;BME280;21711;49.708;18.568;2023-04-24T07:27:25;96274.41;;;19.90;41.05
31346;BME280;21711;49.708;18.568;2023-04-24T07:29:53;96271.84;;;19.97;41.20
31346;BME280;21711;49.708;18.568;2023-04-24T07:32:20;96275.28;;;19.31;38.76
31346;BME280;21711;49.708;18.568;2023-04-24T07:34:48;96271.06;;;19.30;39.52
31346;BME280;21711;49.708;18.568;2023-04-24T07:37:15;96278.34;;;19.29;43.70
31346;BME280;21711;49.708;18.568;2023-04-24T07:39:42;96276.13;;;19.35;41.93
31346;BME280;21711;49.708;18.568;2023-04-24T07:42:10;96272.81;;;19.42;40.03
31346;BME280;21711;49.708;18.568;2023-04-24T07:44:37;96276.38;;;19.07;39.94
31346;BME280;21711;49.708;18.568;2023-04-24T07:47:05;96280.59;;;19.08;41.40
31346;BME280;21711;49.708;18.568;2023-04-24T07:49:32;96278.72;;;18.92;40.00
31346;BME280;21711;49.708;18.568;2023-04-24T07:52:01;96278.28;;;18.90;43.74
31346;BME280;21711;49.708;18.568;2023-04-24T07:54:29;96283.22;;;18.88;39.73
31346;BME280;21711;49.708;18.568;2023-04-24T07:56:57;96275.94;;;19.04;41.50
31346;BME280;21711;49.708;18.568;2023-04-24T07:59:24;96281.97;;;19.01;41.53
31346;BME280;21711;49.708;18.568;2023-04-24T08:01:51;96284.44;;;18.90;42.09
31346;BME280;21711;49.708;18.568;2023-04-24T08:04:19;96287.56;;;18.76;42.56
31346;BME280;21711;49.708;18.568;2023-04-24T08:06:48;96282.25;;;18.60;42.89
31346;BME280;21711;49.708;18.568;2023-04-24T08:09:15;96281.53;;;18.27;41.14
31346;BME280;21711;49.708;18.568;2023-04-24T08:11:43;96273.00;;;18.22;45.28
31346;BME280;21711;49.708;18.568;2023-04-24T08:14:10;96276.66;;;18.13;42.95
31346;BME280;21711;49.708;18.568;2023-04-24T08:16:39;96282.31;;;17.96;44.29
31346;BME280;21711;49.708;18.568;2023-04-24T08:19:07;96274.44;;;18.03;44.95
31346;BME280;21711;49.708;18.568;2023-04-24T08:21:34;96278.34;;;17.90;44.40
31346;BME280;21711;49.708;18.568;2023-04-24T08:24:01;96286.38;;;17.90;45.92
31346;BME280;21711;49.708;18.568;2023-04-24T08:26:32;96292.31;;;17.83;54.57
31346;BME280;21711;49.708;18.568;2023-04-24T08:28:59;96288.63;;;17.43;45.17
31346;BME280;21711;49.708;18.568;2023-04-24T08:31:26;96282.19;;;17.31;45.36
31346;BME280;21711;49.708;18.568;2023-04-24T08:33:54;96286.38;;;17.45;51.07
31346;BME280;21711;49.708;18.568;2023-04-24T08:36:22;96290.03;;;17.24;50.72
31346;BME280;21711;49.708;18.568;2023-04-24T08:38:59;96290.47;;;17.26;54.00
31346;BME280;21711;49.708;18.568;2023-04-24T08:41:27;96280.75;;;17.05;53.69
31346;BME280;21711;49.708;18.568;2023-04-24T08:43:55;96284.38;;;17.01;47.65
31346;BME280;21711;49.708;18.568;2023-04-24T08:46:25;96283.16;;;17.23;45.56
31346;BME280;21711;49.708;18.568;2023-04-24T08:48:53;96282.81;;;17.41;48.01
31346;BME280;21711;49.708;18.568;2023-04-24T08:51:20;96290.34;;;17.51;47.22
31346;BME280;21711;49.708;18.568;2023-04-24T08:53:48;96284.31;;;17.54;46.12
31346;BME280;21711;49.708;18.568;2023-04-24T08:56:16;96287.72;;;17.67;54.83
31346;BME280;21711;49.708;18.568;2023-04-24T08:58:44;96291.97;;;17.68;59.83
31346;BME280;21711;49.708;18.568;2023-04-24T09:01:12;96289.09;;;17.77;66.28
31346;BME280;21711;49.708;18.568;2023-04-24T09:03:40;96287.91;;;17.74;57.25
31346;BME280;21711;49.708;18.568;2023-04-24T09:06:09;96283.78;;;17.93;55.69
31346;BME280;21711;49.708;18.568;2023-04-24T09:08:38;96282.91;;;18.05;56.74
31346;BME280;21711;49.708;18.568;2023-04-24T09:11:07;96286.91;;;18.11;64.42
31346;BME280;21711;49.708;18.568;2023-04-24T09:13:35;96292.97;;;18.08;66.25
31346;BME280;21711;49.708;18.568;2023-04-24T09:16:04;96280.59;;;18.20;64.25
31346;BME280;21711;49.708;18.568;2023-04-24T09:18:31;96285.75;;;17.80;68.68
31346;BME280;21711;49.708;18.568;2023-04-24T09:21:08;96276.78;;;17.88;59.17
31346;BME280;21711;49.708;18.568;2023-04-24T09:23:36;96277.75;;;17.96;57.56
31346;BME280;21711;49.708;18.568;2023-04-24T09:26:04;96276.78;;;18.05;58.38
31346;BME280;21711;49.708;18.568;2023-04-24T09:28:38;96282.41;;;18.32;56.00
31346;BME280;21711;49.708;18.568;2023-04-24T09:31:13;96279.22;;;18.10;55.28
31346;BME280;21711;49.708;18.568;2023-04-24T09:34:01;96278.78;;;18.40;54.02
31346;BME280;21711;49.708;18.568;2023-04-24T09:36:41;96273.44;;;18.40;53.58
31346;BME280;21711;49.708;18.568;2023-04-24T09:39:12;96268.78;;;18.21;53.74
31346;BME280;21711;49.708;18.568;2023-04-24T09:41:54;96274.88;;;18.05;56.57
31346;BME280;21711;49.708;18.568;2023-04-24T09:44:27;96266.44;;;17.87;54.87
31346;BME280;21711;49.708;18.568;2023-04-24T09:47:00;96258.31;;;17.99;53.44
31346;BME280;21711;49.708;18.568;2023-04-24T09:49:30;96268.75;;;18.05;53.86
31346;BME280;21711;49.708;18.568;2023-04-24T09:52:09;96266.22;;;18.08;59.73
31346;BME280;21711;49.708;18.568;2023-04-24T09:54:37;96265.06;;;17.93;56.18
31346;BME280;21711;49.708;18.568;2023-04-24T09:57:07;96268.00;;;17.88;58.85
31346;BME280;21711;49.708;18.568;2023-04-24T09:59:35;96275.22;;;17.87;54.32
31346;BME280;21711;49.708;18.568;2023-04-24T10:02:20;96271.69;;;17.99;53.10
31346;BME280;21711;49.708;18.568;2023-04-24T10:04:57;96270.09;;;18.11;54.43
31346;BME280;21711;49.708;18.568;2023-04-24T10:07:27;96272.66;;;18.07;56.56
31346;BME280;21711;49.708;18.568;2023-04-24T10:09:54;96276.28;;;17.83;58.37
31346;BME280;21711;49.708;18.568;2023-04-24T10:12:23;96276.78;;;17.28;58.52
31346;BME280;21711;49.708;18.568;2023-04-24T10:14:52;96278.97;;;17.09;63.60
31346;BME280;21711;49.708;18.568;2023-04-24T10:17:21;96279.25;;;17.20;66.37
31346;BME280;21711;49.708;18.568;2023-04-24T10:19:49;96285.16;;;17.42;65.62
31346;BME280;21711;49.708;18.568;2023-04-24T10:22:17;96279.91;;;17.30;65.38
31346;BME280;21711;49.708;18.568;2023-04-24T10:24:45;96272.31;;;17.32;65.28
31346;BME280;21711;49.708;18.568;2023-04-24T10:27:14;96266.88;;;17.28;60.59
31346;BME280;21711;49.708;18.568;2023-04-24T10:29:43;96280.38;;;17.64;57.80
31346;BME280;21711;49.708;18.568;2023-04-24T10:32:12;96283.47;;;17.66;58.97
31346;BME280;21711;49.708;18.568;2023-04-24T10:34:39;96277.84;;;17.55;55.68
31346;BME280;21711;49.708;18.568;2023-04-24T10:37:07;96275.41;;;17.34;54.89
31346;BME280;21711;49.708;18.568;2023-04-24T10:39:34;96281.56;;;17.22;56.37
31346;BME280;21711;49.708;18.568;2023-04-24T10:42:12;96276.84;;;17.03;55.43
31346;BME280;21711;49.708;18.568;2023-04-24T10:44:40;96273.84;;;16.92;55.53
31346;BME280;21711;49.708;18.568;2023-04-24T10:47:13;96279.22;;;16.79;57.24
31346;BME280;21711;49.708;18.568;2023-04-24T10:49:41;96279.38;;;16.58;57.54
31346;BME280;21711;49.708;18.568;2023-04-24T10:52:09;96277.72;;;16.66;57.90
31346;BME280;21711;49.708;18.568;2023-04-24T10:54:44;96280.72;;;16.39;60.60
31346;BME280;21711;49.708;18.568;2023-04-24T11:00:28;96288.41;;;16.28;63.16
31346;BME280;21711;49.708;18.568;2023-04-24T11:02:57;96285.28;;;16.39;63.76
31346;BME280;21711;49.708;18.568;2023-04-24T11:06:08;96289.19;;;16.54;68.26
31346;BME280;21711;49.708;18.568;2023-04-24T11:08:45;96294.63;;;16.45;62.74
31346;BME280;21711;49.708;18.568;2023-04-24T11:11:14;96294.63;;;16.58;64.91
31346;BME280;21711;49.708;18.568;2023-04-24T11:16:34;96307.06;;;16.66;74.02
31346;BME280;21711;49.708;18.568;2023-04-24T11:19:07;96295.13;;;16.76;78.09
31346;BME280;21711;49.708;18.568;2023-04-24T11:27:17;96304.16;;;15.96;99.27
31346;BME280;21711;49.708;18.568;2023-04-24T11:29:51;96299.72;;;16.00;81.50
31346;BME280;21711;49.708;18.568;2023-04-24T11:32:36;96309.31;;;15.80;75.86
31346;BME280;21711;49.708;18.568;2023-04-24T11:35:15;96316.19;;;15.69;76.10
31346;BME280;21711;49.708;18.568;2023-04-24T11:37:51;96314.78;;;15.50;70.65
31346;BME280;21711;49.708;18.568;2023-04-24T11:40:39;96316.34;;;15.51;71.18
31346;BME280;21711;49.708;18.568;2023-04-24T11:43:07;96305.38;;;15.65;71.54
31346;BME280;21711;49.708;18.568;2023-04-24T11:45:35;96310.53;;;15.49;74.59
31346;BME280;21711;49.708;18.568;2023-04-24T11:48:03;96301.53;;;15.41;69.04
31346;BME280;21711;49.708;18.568;2023-04-24T11:50:31;96308.72;;;15.74;72.65
31346;BME280;21711;49.708;18.568;2023-04-24T11:52:58;96309.38;;;15.59;73.33
31346;BME280;21711;49.708;18.568;2023-04-24T11:55:28;96316.28;;;15.72;76.86
31346;BME280;21711;49.708;18.568;2023-04-24T11:57:58;96318.16;;;15.59;74.13
31346;BME280;21711;49.708;18.568;2023-04-24T12:00:30;96311.44;;;15.53;77.45
31346;BME280;21711;49.708;18.568;2023-04-24T12:03:09;96312.69;;;15.56;75.21
31346;BME280;21711;49.708;18.568;2023-04-24T12:05:39;96310.22;;;15.50;76.76
31346;BME280;21711;49.708;18.568;2023-04-24T12:08:07;96311.13;;;15.55;80.29
31346;BME280;21711;49.708;18.568;2023-04-24T12:10:35;96315.06;;;15.70;76.95
31346;BME280;21711;49.708;18.568;2023-04-24T12:13:03;96316.97;;;15.48;77.48
31346;BME280;21711;49.708;18.568;2023-04-24T12:15:30;96305.94;;;15.03;78.86
31346;BME280;21711;49.708;18.568;2023-04-24T12:17:58;96307.41;;;15.13;80.17
31346;BME280;21711;49.708;18.568;2023-04-24T12:20:30;96305.44;;;15.22;83.11
31346;BME280;21711;49.708;18.568;2023-04-24T12:23:00;96307.88;;;14.94;81.72
31346;BME280;21711;49.708;18.568;2023-04-24T12:25:31;96306.28;;;14.71;84.89
31346;BME280;21711;49.708;18.568;2023-04-24T12:30:46;96299.94;;;14.55;87.33
31346;BME280;21711;49.708;18.568;2023-04-24T12:33:20;96295.41;;;14.55;90.15
31346;BME280;21711;49.708;18.568;2023-04-24T12:35:51;96299.22;;;14.45;91.49
31346;BME280;21711;49.708;18.568;2023-04-24T12:38:25;96293.50;;;14.26;88.00
31346;BME280;21711;49.708;18.568;2023-04-24T12:41:09;96293.16;;;14.36;93.06
31346;BME280;21711;49.708;18.568;2023-04-24T12:43:37;96291.88;;;14.42;91.80
31346;BME280;21711;49.708;18.568;2023-04-24T12:46:05;96279.47;;;14.16;90.27
31346;BME280;21711;49.708;18.568;2023-04-24T12:48:33;96278.75;;;14.07;90.64
31346;BME280;21711;49.708;18.568;2023-04-24T12:51:00;96285.66;;;13.99;92.85
31346;BME280;21711;49.708;18.568;2023-04-24T12:53:29;96280.94;;;14.05;93.86
31346;BME280;21711;49.708;18.568;2023-04-24T12:55:58;96286.91;;;14.02;95.97
31346;BME280;21711;49.708;18.568;2023-04-24T12:58:25;96287.94;;;14.10;94.56
31346;BME280;21711;49.708;18.568;2023-04-24T13:00:53;96288.88;;;14.14;97.25
31346;BME280;21711;49.708;18.568;2023-04-24T13:03:21;96289.31;;;14.16;96.62
31346;BME280;21711;49.708;18.568;2023-04-24T13:05:49;96279.16;;;14.18;97.22
31346;BME280;21711;49.708;18.568;2023-04-24T13:08:17;96282.38;;;14.32;98.56
31346;BME280;21711;49.708;18.568;2023-04-24T13:10:44;96281.69;;;14.14;100.00
31346;BME280;21711;49.708;18.568;2023-04-24T13:13:12;96280.84;;;14.23;100.00
31346;BME280;21711;49.708;18.568;2023-04-24T13:15:40;96274.47;;;14.15;100.00